Time;durP1;ratioP1;P1;durP2;ratioP2;P2;SDS_P1;SDS_P2;PMS_P1;PMS_P2;Temp;Humidity;BMP_temperature;BMP_pressure;BME280_temperature;BME280_humidity;BME280_pressure;Samples;Min_cycle;Max_cycle;Signal;HPM_P1;HPM_P2
2023/01/16 00:01:53;;;;;;;12.63;1.50;;;;;;;;;;4982150;28;20195;-68
2023/01/16 00:04:18;;;;;;;5.73;1.10;;;;;;;;;;4988207;28;20195;-69
2023/01/16 00:06:43;;;;;;;5.67;1.10;;;;;;;;;;4989220;28;20199;-68
2023/01/16 00:09:09;;;;;;;6.67;1.10;;;;;;;;;;4986551;28;20616;-68
2023/01/16 00:11:34;;;;;;;5.27;1.30;;;;;;;;;;4987061;28;20183;-68
2023/01/16 00:14:00;;;;;;;6.57;1.53;;;;;;;;;;4988362;28;20278;-67
2023/01/16 00:16:26;;;;;;;4.37;1.23;;;;;;;;;;4986345;28;20655;-67
2023/01/16 00:18:52;;;;;;;9.03;1.23;;;;;;;;;;4982080;28;20184;-67
2023/01/16 00:21:19;;;;;;;3.47;1.20;;;;;;;;;;4982961;28;20258;-66
2023/01/16 00:23:45;;;;;;;12.33;1.73;;;;;;;;;;4994935;28;20187;-68
2023/01/16 00:26:11;;;;;;;6.77;1.43;;;;;;;;;;4992909;28;20286;-67
2023/01/16 00:28:37;;;;;;;7.57;1.07;;;;;;;;;;4986719;28;20690;-67
2023/01/16 00:31:06;;;;;;;5.13;1.17;;;;;;;;;;4982614;28;20219;-67
2023/01/16 00:33:33;;;;;;;4.33;1.10;;;;;;;;;;4986385;28;20195;-67
2023/01/16 00:35:58;;;;;;;5.77;1.60;;;;;;;;;;4992511;28;20187;-67
2023/01/16 00:38:24;;;;;;;5.70;1.00;;;;;;;;;;4984784;28;20183;-67
2023/01/16 00:40:49;;;;;;;4.53;1.10;;;;;;;;;;4987428;28;20796;-67
2023/01/16 00:43:14;;;;;;;8.20;1.20;;;;;;;;;;4985644;28;20187;-67
2023/01/16 00:45:40;;;;;;;3.57;1.07;;;;;;;;;;4988009;28;20306;-67
2023/01/16 00:48:06;;;;;;;7.23;1.57;;;;;;;;;;4981810;28;20202;-68
2023/01/16 00:50:32;;;;;;;10.97;1.43;;;;;;;;;;4978110;28;20191;-67
2023/01/16 00:52:57;;;;;;;5.67;1.10;;;;;;;;;;4986584;28;20208;-67
2023/01/16 00:55:23;;;;;;;6.30;1.10;;;;;;;;;;4983795;28;20200;-67
2023/01/16 00:57:48;;;;;;;6.73;1.27;;;;;;;;;;4985427;28;20214;-67
2023/01/16 01:00:14;;;;;;;6.77;1.13;;;;;;;;;;4987141;28;20295;-67
2023/01/16 01:02:39;;;;;;;7.83;1.23;;;;;;;;;;5000563;28;20217;-67
2023/01/16 01:05:06;;;;;;;6.13;1.47;;;;;;;;;;4988011;28;20187;-67
2023/01/16 01:07:32;;;;;;;5.90;1.30;;;;;;;;;;4992374;28;20190;-67
2023/01/16 01:09:57;;;;;;;3.37;0.80;;;;;;;;;;4980645;28;20215;-67
2023/01/16 01:12:23;;;;;;;5.93;1.23;;;;;;;;;;4985775;28;20261;-67
2023/01/16 01:14:49;;;;;;;2.67;1.00;;;;;;;;;;4986998;28;20711;-67
2023/01/16 01:17:14;;;;;;;1.73;0.90;;;;;;;;;;4997544;28;20244;-67
2023/01/16 01:19:40;;;;;;;6.00;1.00;;;;;;;;;;4982953;28;20219;-67
2023/01/16 01:22:05;;;;;;;6.80;1.20;;;;;;;;;;4978367;28;20198;-66
2023/01/16 01:24:30;;;;;;;8.43;1.53;;;;;;;;;;4982710;28;20203;-66
2023/01/16 01:26:56;;;;;;;3.80;1.00;;;;;;;;;;4982417;28;20317;-66
2023/01/16 01:29:21;;;;;;;4.47;1.00;;;;;;;;;;4985739;28;20211;-66
2023/01/16 01:31:47;;;;;;;7.60;1.37;;;;;;;;;;4988238;28;20667;-67
2023/01/16 01:34:12;;;;;;;3.80;1.20;;;;;;;;;;4990678;28;20188;-66
2023/01/16 01:36:37;;;;;;;4.70;1.47;;;;;;;;;;4980830;28;20191;-66
2023/01/16 01:39:03;;;;;;;7.93;1.57;;;;;;;;;;4983276;28;20203;-68
2023/01/16 01:41:28;;;;;;;4.60;1.10;;;;;;;;;;4986493;28;20198;-67
2023/01/16 01:43:56;;;;;;;3.00;1.10;;;;;;;;;;4984956;28;20200;-68
2023/01/16 01:46:29;;;;;;;5.37;1.10;;;;;;;;;;4983529;28;20569;-67
2023/01/16 01:49:10;;;;;;;3.40;1.20;;;;;;;;;;4984738;28;20290;-67
2023/01/16 01:51:41;;;;;;;5.33;1.40;;;;;;;;;;4987192;28;20351;-68
2023/01/16 01:54:15;;;;;;;3.40;1.40;;;;;;;;;;4986454;28;20195;-67
2023/01/16 01:56:55;;;;;;;4.80;1.43;;;;;;;;;;5003017;28;20194;-67
2023/01/16 01:59:26;;;;;;;5.90;1.70;;;;;;;;;;4977319;28;20238;-67
2023/01/16 02:01:53;;;;;;;4.17;1.80;;;;;;;;;;4989091;28;20207;-70
2023/01/16 02:04:25;;;;;;;4.30;2.00;;;;;;;;;;4999498;28;20195;-67
2023/01/16 02:06:54;;;;;;;6.80;3.00;;;;;;;;;;4983849;28;20195;-68
2023/01/16 02:09:22;;;;;;;4.23;2.40;;;;;;;;;;4977518;28;20216;-68
2023/01/16 02:12:11;;;;;;;3.57;2.87;;;;;;;;;;4992942;28;20318;-68
2023/01/16 02:14:40;;;;;;;6.50;2.80;;;;;;;;;;4985698;28;20733;-68
2023/01/16 02:20:05;;;;;;;5.47;3.37;;;;;;;;;;4972217;28;20211;-68
2023/01/16 02:22:45;;;;;;;4.10;3.53;;;;;;;;;;4986589;28;20187;-68
2023/01/16 02:25:47;;;;;;;6.70;4.03;;;;;;;;;;4987082;28;20251;-67
2023/01/16 02:28:43;;;;;;;7.70;4.37;;;;;;;;;;4992310;28;20269;-68
2023/01/16 02:31:24;;;;;;;7.73;5.10;;;;;;;;;;4988165;28;20218;-68
2023/01/16 02:34:19;;;;;;;7.00;5.10;;;;;;;;;;4978797;28;20199;-68
2023/01/16 02:37:04;;;;;;;8.67;5.50;;;;;;;;;;4987316;28;20220;-68
2023/01/16 02:40:12;;;;;;;10.23;6.10;;;;;;;;;;5003189;28;20197;-67
2023/01/16 02:42:45;;;;;;;9.63;6.10;;;;;;;;;;4985864;28;20511;-67
2023/01/16 02:45:15;;;;;;;10.23;7.03;;;;;;;;;;4982537;28;20199;-67
2023/01/16 02:48:08;;;;;;;9.20;6.93;;;;;;;;;;4981110;28;20196;-68
2023/01/16 02:51:02;;;;;;;11.27;7.57;;;;;;;;;;4984635;28;20633;-67
2023/01/16 02:54:02;;;;;;;10.33;7.43;;;;;;;;;;4994288;28;20199;-67
2023/01/16 02:56:36;;;;;;;12.10;7.70;;;;;;;;;;4986031;28;20192;-67
2023/01/16 02:59:01;;;;;;;10.57;7.73;;;;;;;;;;4982142;28;20683;-68
2023/01/16 03:01:26;;;;;;;10.33;6.73;;;;;;;;;;4988189;28;20242;-68
2023/01/16 03:03:55;;;;;;;8.33;6.27;;;;;;;;;;4991410;28;20207;-67
2023/01/16 03:06:20;;;;;;;7.40;5.77;;;;;;;;;;5002915;28;20195;-67
2023/01/16 03:08:57;;;;;;;7.47;5.47;;;;;;;;;;4978132;28;20234;-67
2023/01/16 03:11:26;;;;;;;8.03;5.77;;;;;;;;;;4988041;28;20191;-67
2023/01/16 03:14:06;;;;;;;6.60;4.70;;;;;;;;;;4978729;28;20207;-67
2023/01/16 03:16:34;;;;;;;6.37;4.53;;;;;;;;;;4993429;28;20195;-67
2023/01/16 03:19:11;;;;;;;8.07;4.67;;;;;;;;;;4985021;28;20184;-68
2023/01/16 03:22:07;;;;;;;6.33;4.30;;;;;;;;;;4983729;28;20681;-68
2023/01/16 03:25:05;;;;;;;5.10;3.90;;;;;;;;;;4987004;28;20203;-69
2023/01/16 03:27:33;;;;;;;9.67;4.43;;;;;;;;;;4991133;28;20891;-69
2023/01/16 03:30:08;;;;;;;7.20;3.80;;;;;;;;;;4984510;28;20694;-68
2023/01/16 03:32:45;;;;;;;6.23;3.33;;;;;;;;;;4984764;28;20234;-68
2023/01/16 03:35:19;;;;;;;5.27;3.87;;;;;;;;;;4976137;28;20183;-68
2023/01/16 03:37:51;;;;;;;9.20;3.53;;;;;;;;;;4975565;28;20574;-68
2023/01/16 03:40:33;;;;;;;4.67;3.70;;;;;;;;;;4974536;28;20298;-68
2023/01/16 03:43:06;;;;;;;7.80;3.70;;;;;;;;;;4978078;28;20184;-68
2023/01/16 03:45:39;;;;;;;6.00;3.00;;;;;;;;;;4977438;28;20198;-68
2023/01/16 03:48:35;;;;;;;8.83;3.67;;;;;;;;;;4989814;28;20204;-69
2023/01/16 03:51:08;;;;;;;7.53;4.03;;;;;;;;;;4970256;28;20243;-68
2023/01/16 03:53:43;;;;;;;6.00;3.17;;;;;;;;;;4986729;28;20234;-68
2023/01/16 03:56:42;;;;;;;7.67;3.23;;;;;;;;;;4974480;28;20715;-68
2023/01/16 03:59:07;;;;;;;7.37;3.53;;;;;;;;;;4992422;28;20200;-68
2023/01/16 04:01:51;;;;;;;10.80;3.73;;;;;;;;;;4998407;28;20657;-68
2023/01/16 04:04:22;;;;;;;9.43;3.27;;;;;;;;;;4981829;28;20192;-68
2023/01/16 04:06:58;;;;;;;8.00;3.17;;;;;;;;;;4986641;28;20310;-68
2023/01/16 04:09:58;;;;;;;8.33;2.90;;;;;;;;;;4980932;28;20227;-68
2023/01/16 04:12:32;;;;;;;5.87;3.10;;;;;;;;;;4986895;28;20199;-68
2023/01/16 04:15:00;;;;;;;9.77;3.27;;;;;;;;;;4985827;28;20575;-68
2023/01/16 04:17:28;;;;;;;9.33;2.80;;;;;;;;;;4990083;28;20214;-68
2023/01/16 04:19:53;;;;;;;9.27;3.00;;;;;;;;;;4987345;28;20245;-68
2023/01/16 04:22:24;;;;;;;9.20;4.43;;;;;;;;;;4987832;28;20195;-69
2023/01/16 04:24:52;;;;;;;14.60;3.57;;;;;;;;;;4980069;28;20246;-68
2023/01/16 04:27:18;;;;;;;7.47;3.17;;;;;;;;;;4985474;28;20315;-68
2023/01/16 04:29:44;;;;;;;10.77;3.40;;;;;;;;;;4987182;28;20289;-68
2023/01/16 04:32:09;;;;;;;10.10;3.50;;;;;;;;;;4997611;28;20655;-69
2023/01/16 04:34:35;;;;;;;10.00;3.50;;;;;;;;;;4984762;28;20204;-68
2023/01/16 04:37:00;;;;;;;8.97;3.30;;;;;;;;;;4986736;28;20278;-68
2023/01/16 04:39:25;;;;;;;7.47;3.23;;;;;;;;;;4983851;28;20188;-68
2023/01/16 04:41:51;;;;;;;8.03;3.80;;;;;;;;;;4985993;28;20213;-68
2023/01/16 04:44:17;;;;;;;9.37;3.10;;;;;;;;;;4985164;28;20199;-68
2023/01/16 04:46:43;;;;;;;11.03;3.40;;;;;;;;;;4982809;28;20749;-68
2023/01/16 04:49:08;;;;;;;8.47;2.70;;;;;;;;;;4999261;28;20234;-68
2023/01/16 04:51:35;;;;;;;8.83;2.77;;;;;;;;;;4987335;28;20698;-68
2023/01/16 04:54:01;;;;;;;7.23;2.87;;;;;;;;;;4987776;28;20194;-68
2023/01/16 04:56:27;;;;;;;15.90;3.60;;;;;;;;;;4997519;28;20306;-68
2023/01/16 04:58:53;;;;;;;12.43;3.03;;;;;;;;;;4988003;28;20297;-68
2023/01/16 05:01:19;;;;;;;4.90;2.60;;;;;;;;;;4991216;28;20222;-68
2023/01/16 05:03:44;;;;;;;5.33;2.70;;;;;;;;;;4988550;28;20200;-68
2023/01/16 05:06:09;;;;;;;9.50;2.60;;;;;;;;;;4995871;28;20306;-68
2023/01/16 05:08:35;;;;;;;5.73;2.67;;;;;;;;;;4999830;28;20431;-68
2023/01/16 05:11:01;;;;;;;9.70;3.07;;;;;;;;;;4998150;28;20233;-68
2023/01/16 05:13:27;;;;;;;7.10;2.53;;;;;;;;;;5004831;28;20190;-68
2023/01/16 05:15:53;;;;;;;9.03;2.73;;;;;;;;;;4995892;28;20199;-68
2023/01/16 05:18:18;;;;;;;9.33;3.10;;;;;;;;;;4997991;28;20218;-68
2023/01/16 05:20:44;;;;;;;6.17;2.30;;;;;;;;;;4988002;28;20201;-68
2023/01/16 05:23:10;;;;;;;13.10;2.63;;;;;;;;;;5001287;28;20195;-68
2023/01/16 05:25:36;;;;;;;7.10;2.57;;;;;;;;;;4980280;28;20196;-68
2023/01/16 05:28:01;;;;;;;8.07;2.30;;;;;;;;;;4995764;28;20235;-68
2023/01/16 05:30:27;;;;;;;5.90;2.60;;;;;;;;;;4986231;28;20211;-68
2023/01/16 05:32:52;;;;;;;8.50;2.23;;;;;;;;;;4992454;28;20187;-68
2023/01/16 05:35:19;;;;;;;7.47;2.33;;;;;;;;;;4992137;28;20187;-68
2023/01/16 05:37:44;;;;;;;8.60;2.60;;;;;;;;;;4992141;28;20558;-67
2023/01/16 05:40:10;;;;;;;8.07;1.90;;;;;;;;;;4983637;28;20184;-67
2023/01/16 05:42:36;;;;;;;7.80;1.93;;;;;;;;;;4989473;28;20184;-68
2023/01/16 05:45:01;;;;;;;3.87;1.80;;;;;;;;;;4989649;28;20199;-68
2023/01/16 05:47:27;;;;;;;4.20;2.03;;;;;;;;;;5003886;28;20183;-68
2023/01/16 05:49:52;;;;;;;12.73;1.90;;;;;;;;;;4995169;28;20295;-68
2023/01/16 05:52:18;;;;;;;6.90;2.77;;;;;;;;;;4991972;28;20214;-68
2023/01/16 05:54:43;;;;;;;8.03;1.60;;;;;;;;;;4992289;28;20194;-68
2023/01/16 05:57:09;;;;;;;8.43;1.77;;;;;;;;;;4998483;28;20191;-68
2023/01/16 05:59:34;;;;;;;13.40;1.93;;;;;;;;;;4996531;28;20286;-68
2023/01/16 06:01:59;;;;;;;7.20;1.57;;;;;;;;;;4983783;28;20623;-68
2023/01/16 06:04:25;;;;;;;6.33;1.83;;;;;;;;;;4991114;28;20202;-69
2023/01/16 06:06:50;;;;;;;9.57;2.43;;;;;;;;;;4996936;28;20199;-68
2023/01/16 06:09:16;;;;;;;8.33;2.00;;;;;;;;;;4996183;28;20210;-68
2023/01/16 06:11:41;;;;;;;7.27;1.77;;;;;;;;;;4999482;28;20194;-68
2023/01/16 06:14:07;;;;;;;12.90;2.57;;;;;;;;;;4989172;28;20191;-68
2023/01/16 06:16:33;;;;;;;5.80;1.87;;;;;;;;;;4990359;28;20712;-68
2023/01/16 06:18:59;;;;;;;9.67;2.77;;;;;;;;;;4987993;28;20180;-68
2023/01/16 06:21:25;;;;;;;11.00;2.90;;;;;;;;;;4982592;28;20539;-68
2023/01/16 06:23:50;;;;;;;12.60;2.93;;;;;;;;;;4985877;28;20293;-68
2023/01/16 06:26:16;;;;;;;9.60;2.93;;;;;;;;;;4989237;28;20262;-68
2023/01/16 06:28:41;;;;;;;9.33;3.20;;;;;;;;;;4990617;28;20729;-68
2023/01/16 06:31:07;;;;;;;17.07;3.90;;;;;;;;;;5005027;28;20202;-68
2023/01/16 06:33:33;;;;;;;11.13;3.77;;;;;;;;;;4995547;28;20623;-68
2023/01/16 06:35:59;;;;;;;10.83;3.60;;;;;;;;;;5001500;28;20199;-68
2023/01/16 06:38:25;;;;;;;11.80;3.53;;;;;;;;;;4995103;28;20182;-68
2023/01/16 06:40:55;;;;;;;12.33;4.20;;;;;;;;;;4994863;28;20269;-68
2023/01/16 06:43:28;;;;;;;10.33;4.27;;;;;;;;;;4994749;28;20204;-68
2023/01/16 06:45:54;;;;;;;13.83;4.07;;;;;;;;;;4991556;28;20229;-68
2023/01/16 06:48:20;;;;;;;9.93;3.97;;;;;;;;;;4987133;28;20271;-68
2023/01/16 06:50:45;;;;;;;8.03;3.80;;;;;;;;;;4991344;28;20299;-68
2023/01/16 06:53:11;;;;;;;6.70;3.73;;;;;;;;;;4991976;28;20269;-68
2023/01/16 06:55:37;;;;;;;12.13;4.20;;;;;;;;;;4979653;28;20191;-68
2023/01/16 06:58:02;;;;;;;11.87;3.70;;;;;;;;;;4992873;28;20218;-69
2023/01/16 07:00:28;;;;;;;10.17;4.63;;;;;;;;;;4987572;28;20222;-68
2023/01/16 07:02:55;;;;;;;10.43;3.80;;;;;;;;;;4998321;28;20195;-68
2023/01/16 07:05:25;;;;;;;11.63;4.47;;;;;;;;;;4995728;28;20183;-68
2023/01/16 07:07:51;;;;;;;6.93;3.30;;;;;;;;;;5000021;28;20287;-68
2023/01/16 07:10:20;;;;;;;7.77;4.37;;;;;;;;;;4991594;28;20752;-69
2023/01/16 07:12:46;;;;;;;8.17;3.83;;;;;;;;;;4996523;28;20187;-68
2023/01/16 07:23:30;;;;;;;4.83;2.50;;;;;;;;;;4989101;28;20210;-68
2023/01/16 07:25:58;;;;;;;6.63;3.00;;;;;;;;;;4983844;28;20271;-70
2023/01/16 07:28:24;;;;;;;6.20;2.90;;;;;;;;;;4993327;28;20187;-70
2023/01/16 07:30:50;;;;;;;9.77;3.00;;;;;;;;;;4979359;28;20207;-69
2023/01/16 07:33:16;;;;;;;5.90;2.50;;;;;;;;;;4984595;28;20195;-69
2023/01/16 07:35:41;;;;;;;7.30;2.50;;;;;;;;;;4974312;28;20515;-70
2023/01/16 07:38:07;;;;;;;3.87;1.80;;;;;;;;;;4982268;28;20259;-69
2023/01/16 07:40:32;;;;;;;9.70;2.43;;;;;;;;;;4979043;28;20485;-69
2023/01/16 07:42:57;;;;;;;5.07;1.73;;;;;;;;;;4977340;28;20253;-69
2023/01/16 07:45:23;;;;;;;6.00;1.80;;;;;;;;;;4986103;28;20202;-69
2023/01/16 07:47:48;;;;;;;4.07;1.50;;;;;;;;;;4985951;28;20543;-70
2023/01/16 07:50:13;;;;;;;3.40;1.33;;;;;;;;;;4993122;28;20215;-69
2023/01/16 07:52:39;;;;;;;4.57;1.17;;;;;;;;;;4989354;28;20253;-69
2023/01/16 07:55:05;;;;;;;5.17;1.90;;;;;;;;;;4986903;28;20190;-69
2023/01/16 07:57:30;;;;;;;4.87;1.60;;;;;;;;;;4977656;28;20273;-70
2023/01/16 07:59:56;;;;;;;6.30;2.03;;;;;;;;;;4980373;28;20250;-69
2023/01/16 08:02:21;;;;;;;3.90;1.47;;;;;;;;;;4984116;28;20205;-69
2023/01/16 08:04:47;;;;;;;6.23;1.47;;;;;;;;;;4986818;28;20617;-69
2023/01/16 08:07:12;;;;;;;1.83;0.90;;;;;;;;;;4982381;28;20188;-69
2023/01/16 08:09:37;;;;;;;6.20;1.33;;;;;;;;;;4985147;28;20703;-69
2023/01/16 08:12:03;;;;;;;3.00;0.90;;;;;;;;;;4986166;28;20491;-70
2023/01/16 08:14:29;;;;;;;4.03;0.90;;;;;;;;;;4979362;28;20195;-70
2023/01/16 08:16:54;;;;;;;5.43;1.50;;;;;;;;;;4970881;28;20612;-70
2023/01/16 08:19:19;;;;;;;3.03;0.90;;;;;;;;;;4982462;28;20278;-67
2023/01/16 08:21:45;;;;;;;2.53;1.10;;;;;;;;;;4982195;28;20745;-68
2023/01/16 08:24:12;;;;;;;3.00;0.57;;;;;;;;;;4983466;28;20273;-68
2023/01/16 08:26:38;;;;;;;5.77;0.90;;;;;;;;;;4979192;28;20227;-68
2023/01/16 08:29:04;;;;;;;4.47;0.70;;;;;;;;;;4990189;28;20215;-71
2023/01/16 08:31:29;;;;;;;3.43;0.70;;;;;;;;;;4982421;28;20184;-70
2023/01/16 08:33:55;;;;;;;2.90;0.80;;;;;;;;;;4989201;28;20234;-70
2023/01/16 08:36:21;;;;;;;3.70;0.90;;;;;;;;;;4989118;28;20194;-70
2023/01/16 08:38:49;;;;;;;5.77;1.90;;;;;;;;;;4990368;28;20229;-72
2023/01/16 08:52:18;;;;;;;4.67;0.80;;;;;;;;;;4987513;28;20195;-70
2023/01/16 08:54:43;;;;;;;2.63;1.00;;;;;;;;;;4987868;28;20661;-70
2023/01/16 08:57:10;;;;;;;3.40;0.73;;;;;;;;;;4986044;28;20314;-70
2023/01/16 08:59:35;;;;;;;3.37;0.87;;;;;;;;;;5006297;28;20179;-70
2023/01/16 09:02:04;;;;;;;3.73;0.80;;;;;;;;;;4983869;28;20199;-70
2023/01/16 09:04:29;;;;;;;2.87;0.70;;;;;;;;;;5006922;28;20206;-70
2023/01/16 09:06:55;;;;;;;5.60;0.70;;;;;;;;;;4986245;28;20644;-71
2023/01/16 09:09:20;;;;;;;5.60;1.13;;;;;;;;;;5000731;28;20264;-70
2023/01/16 09:14:30;;;;;;;2.87;0.83;;;;;;;;;;4988351;28;20198;-71
2023/01/16 09:16:55;;;;;;;5.17;1.30;;;;;;;;;;4990835;28;20609;-72
2023/01/16 09:19:20;;;;;;;2.60;0.87;;;;;;;;;;4997868;28;20183;-72
2023/01/16 09:21:46;;;;;;;4.93;1.40;;;;;;;;;;4992321;28;20207;-73
2023/01/16 09:24:11;;;;;;;5.00;1.20;;;;;;;;;;4988208;28;20183;-73
2023/01/16 09:26:36;;;;;;;2.23;0.80;;;;;;;;;;4988621;28;20254;-73
2023/01/16 09:29:02;;;;;;;3.80;1.00;;;;;;;;;;4987318;28;20205;-73
2023/01/16 09:31:27;;;;;;;2.30;1.13;;;;;;;;;;4989426;28;20644;-73
2023/01/16 09:33:54;;;;;;;5.57;1.37;;;;;;;;;;4992151;28;20195;-72
2023/01/16 09:36:20;;;;;;;3.30;1.30;;;;;;;;;;4993168;28;20192;-73
2023/01/16 09:38:45;;;;;;;8.57;1.90;;;;;;;;;;4988318;28;20257;-72
2023/01/16 09:43:35;;;;;;;2.60;1.17;;;;;;;;;;4987541;28;20202;-72
2023/01/16 09:44:08;;;;;;;3.93;1.53;;;;;;;;;;4987268;28;20265;-72
2023/01/16 09:46:40;;;;;;;3.50;1.60;;;;;;;;;;4983303;28;20188;-71
2023/01/16 09:49:23;;;;;;;5.77;1.40;;;;;;;;;;4991217;28;20285;-71
2023/01/16 10:00:17;;;;;;;5.23;1.87;;;;;;;;;;4989677;28;20270;-71
2023/01/16 10:02:43;;;;;;;3.30;1.90;;;;;;;;;;4979997;28;20527;-71
2023/01/16 10:05:10;;;;;;;4.70;1.60;;;;;;;;;;4990331;28;20640;-71
2023/01/16 10:07:38;;;;;;;3.87;1.23;;;;;;;;;;4989089;28;20207;-71
2023/01/16 10:10:26;;;;;;;4.10;1.30;;;;;;;;;;4989033;28;20258;-71
2023/01/16 10:13:30;;;;;;;2.17;1.43;;;;;;;;;;4977152;28;20243;-71
2023/01/16 10:16:12;;;;;;;4.83;1.50;;;;;;;;;;4988814;28;20732;-71
2023/01/16 10:19:04;;;;;;;3.70;1.47;;;;;;;;;;4976712;28;20238;-70
2023/01/16 10:21:58;;;;;;;4.90;1.80;;;;;;;;;;4988682;28;20243;-70
2023/01/16 10:24:59;;;;;;;3.13;1.50;;;;;;;;;;4997300;28;20194;-70
2023/01/16 10:27:41;;;;;;;4.00;1.63;;;;;;;;;;4992083;28;20238;-71
2023/01/16 10:30:25;;;;;;;5.87;1.57;;;;;;;;;;4996706;28;20211;-71
2023/01/16 10:33:07;;;;;;;5.63;1.70;;;;;;;;;;5005569;28;20279;-71
2023/01/16 10:35:38;;;;;;;5.07;1.57;;;;;;;;;;5005807;28;20199;-71
2023/01/16 10:49:25;;;;;;;4.07;1.60;;;;;;;;;;4998235;28;20190;-72
2023/01/16 10:49:27;;;;;;;6.10;1.70;;;;;;;;;;4994485;28;20203;-71
2023/01/16 10:51:56;;;;;;;4.17;1.47;;;;;;;;;;4995672;28;20203;-70
2023/01/16 10:54:22;;;;;;;4.43;1.80;;;;;;;;;;5002491;28;20623;-71
2023/01/16 10:56:48;;;;;;;5.07;1.70;;;;;;;;;;4994641;28;20279;-71
2023/01/16 10:59:14;;;;;;;3.63;1.57;;;;;;;;;;5004621;28;20238;-68
2023/01/16 11:01:42;;;;;;;4.70;1.90;;;;;;;;;;4971461;28;20212;-71
2023/01/16 11:04:10;;;;;;;5.30;1.43;;;;;;;;;;4989096;28;20634;-69
2023/01/16 11:06:40;;;;;;;4.17;1.83;;;;;;;;;;4992763;28;20230;-70
2023/01/16 11:09:25;;;;;;;4.20;1.50;;;;;;;;;;4994138;28;20223;-70
2023/01/16 11:20:19;;;;;;;4.87;1.70;;;;;;;;;;4978475;28;20180;-70
2023/01/16 11:22:52;;;;;;;7.37;2.27;;;;;;;;;;5001633;28;20688;-70
2023/01/16 11:25:19;;;;;;;3.67;1.73;;;;;;;;;;4993103;28;20184;-70
2023/01/16 11:27:47;;;;;;;8.33;1.70;;;;;;;;;;4998133;28;20238;-69
2023/01/16 11:30:28;;;;;;;3.33;1.67;;;;;;;;;;4998367;28;20211;-70
2023/01/16 11:32:56;;;;;;;4.23;1.40;;;;;;;;;;5004632;28;20259;-70
2023/01/16 11:35:30;;;;;;;3.50;1.30;;;;;;;;;;4997772;28;20199;-70
2023/01/16 11:37:56;;;;;;;2.77;1.10;;;;;;;;;;4990756;28;20204;-69
2023/01/16 11:40:25;;;;;;;3.43;1.40;;;;;;;;;;4992278;28;20195;-69
2023/01/16 11:46:05;;;;;;;3.93;1.20;;;;;;;;;;4989933;28;20226;-69
2023/01/16 11:48:38;;;;;;;3.37;1.10;;;;;;;;;;4973281;28;20237;-69
2023/01/16 11:51:05;;;;;;;3.50;1.10;;;;;;;;;;4994738;28;20196;-69
2023/01/16 11:53:33;;;;;;;4.20;1.10;;;;;;;;;;5001734;28;20673;-69
2023/01/16 11:56:38;;;;;;;5.27;1.40;;;;;;;;;;4995104;28;20183;-69
2023/01/16 11:59:42;;;;;;;2.27;1.00;;;;;;;;;;4995459;28;20186;-68
2023/01/16 12:02:16;;;;;;;3.13;0.87;;;;;;;;;;4966408;28;20199;-68
2023/01/16 12:08:22;;;;;;;2.30;1.10;;;;;;;;;;4991810;28;20195;-68
2023/01/16 12:11:10;;;;;;;2.67;1.20;;;;;;;;;;4995664;28;20253;-68
2023/01/16 12:17:14;;;;;;;3.63;1.20;;;;;;;;;;4989567;28;20187;-69
2023/01/16 12:19:57;;;;;;;3.80;1.00;;;;;;;;;;4995389;28;20198;-68
2023/01/16 12:22:54;;;;;;;3.03;1.00;;;;;;;;;;4981201;28;20660;-69
2023/01/16 12:25:32;;;;;;;5.40;0.90;;;;;;;;;;4983202;28;20183;-69
2023/01/16 12:28:16;;;;;;;3.00;1.20;;;;;;;;;;4961264;28;20783;-69
2023/01/16 12:34:12;;;;;;;2.20;1.20;;;;;;;;;;4989320;28;20299;-69
2023/01/16 12:36:48;;;;;;;3.63;1.33;;;;;;;;;;4989322;28;20191;-69
2023/01/16 12:39:25;;;;;;;4.80;1.60;;;;;;;;;;4983655;28;20626;-69
2023/01/16 12:45:15;;;;;;;3.57;1.23;;;;;;;;;;5002491;28;20237;-69
2023/01/16 12:48:12;;;;;;;3.23;1.20;;;;;;;;;;5003268;28;20254;-69
2023/01/16 12:50:54;;;;;;;1.93;1.10;;;;;;;;;;4975154;28;20294;-69
2023/01/16 12:53:58;;;;;;;1.67;1.07;;;;;;;;;;4985557;28;20191;-70
2023/01/16 12:56:24;;;;;;;1.83;0.80;;;;;;;;;;4961918;28;20206;-69
2023/01/16 12:58:54;;;;;;;1.80;0.80;;;;;;;;;;4941154;28;20189;-69
2023/01/16 13:01:22;;;;;;;4.37;1.10;;;;;;;;;;4981365;28;20219;-69
2023/01/16 13:03:56;;;;;;;1.07;0.70;;;;;;;;;;4979082;28;20203;-69
2023/01/16 13:06:38;;;;;;;3.93;0.80;;;;;;;;;;4976547;28;20276;-69
2023/01/16 13:09:10;;;;;;;1.67;0.87;;;;;;;;;;5003164;28;20214;-70
2023/01/16 13:14:42;;;;;;;4.63;1.53;;;;;;;;;;4988858;28;20199;-69
2023/01/16 13:17:16;;;;;;;1.33;0.70;;;;;;;;;;5000854;28;20194;-69
2023/01/16 13:19:43;;;;;;;0.97;0.80;;;;;;;;;;5002157;28;20633;-69
2023/01/16 13:22:09;;;;;;;1.97;0.50;;;;;;;;;;4992702;28;20196;-69
2023/01/16 13:24:50;;;;;;;3.70;0.60;;;;;;;;;;4990327;28;20190;-70
2023/01/16 13:27:25;;;;;;;1.33;0.57;;;;;;;;;;5002275;28;20717;-69
2023/01/16 13:29:55;;;;;;;1.42;0.57;;;;;;;;;;4992686;28;20221;-69
2023/01/16 13:32:30;;;;;;;2.27;0.77;;;;;;;;;;4981389;28;20197;-69
2023/01/16 13:35:02;;;;;;;1.10;0.83;;;;;;;;;;5001276;28;20619;-69
2023/01/16 13:37:48;;;;;;;1.90;0.77;;;;;;;;;;4987929;28;20198;-69
2023/01/16 13:40:49;;;;;;;2.77;0.50;;;;;;;;;;4998617;28;20558;-70
2023/01/16 13:46:14;;;;;;;3.10;0.40;;;;;;;;;;4999587;28;20226;-69
2023/01/16 13:48:39;;;;;;;0.80;0.57;;;;;;;;;;4994639;28;20227;-69
2023/01/16 13:51:16;;;;;;;0.77;0.43;;;;;;;;;;4996793;28;20643;-69
2023/01/16 13:53:46;;;;;;;5.10;0.97;;;;;;;;;;4982280;28;20286;-69
2023/01/16 13:56:22;;;;;;;2.80;0.50;;;;;;;;;;5001393;28;20238;-68
2023/01/16 13:59:05;;;;;;;1.80;0.90;;;;;;;;;;4999723;28;20194;-68
2023/01/16 14:01:43;;;;;;;5.07;0.50;;;;;;;;;;4991563;28;20623;-68
2023/01/16 14:04:14;;;;;;;1.70;0.60;;;;;;;;;;4986266;28;20695;-68
2023/01/16 14:06:46;;;;;;;1.27;0.60;;;;;;;;;;5004740;28;20195;-69
2023/01/16 14:09:17;;;;;;;0.83;0.50;;;;;;;;;;5001658;28;20474;-69
2023/01/16 14:12:19;;;;;;;2.87;0.67;;;;;;;;;;4983816;28;20196;-69
2023/01/16 14:17:50;;;;;;;1.13;0.60;;;;;;;;;;4999437;28;20187;-69
2023/01/16 14:20:37;;;;;;;1.17;0.50;;;;;;;;;;4979652;28;20283;-69
2023/01/16 14:25:54;;;;;;;1.67;0.60;;;;;;;;;;4989099;28;20261;-70
2023/01/16 14:28:20;;;;;;;1.57;0.80;;;;;;;;;;4987736;28;20228;-69
2023/01/16 14:30:46;;;;;;;2.10;0.40;;;;;;;;;;4987631;28;20610;-70
2023/01/16 14:33:17;;;;;;;2.40;0.60;;;;;;;;;;4983977;28;20575;-69
2023/01/16 14:35:47;;;;;;;1.00;0.50;;;;;;;;;;4999346;28;20199;-70
2023/01/16 14:38:18;;;;;;;2.07;0.60;;;;;;;;;;4994629;28;20195;-70
2023/01/16 14:56:01;;;;;;;1.83;0.60;;;;;;;;;;4981732;28;20670;-70
2023/01/16 14:58:54;;;;;;;2.50;0.53;;;;;;;;;;4988382;28;20652;-70
2023/01/16 15:04:26;;;;;;;1.00;0.47;;;;;;;;;;4989761;28;20189;-69
2023/01/16 15:07:00;;;;;;;1.80;0.70;;;;;;;;;;4999063;28;20188;-70
2023/01/16 15:09:28;;;;;;;0.57;0.47;;;;;;;;;;4991598;28;20305;-69
2023/01/16 15:12:02;;;;;;;0.80;0.60;;;;;;;;;;4998433;28;20202;-69
2023/01/16 15:14:35;;;;;;;3.00;0.70;;;;;;;;;;4992690;28;20293;-70
2023/01/16 15:22:53;;;;;;;3.23;1.00;;;;;;;;;;5003543;28;20240;-69
2023/01/16 15:25:27;;;;;;;2.57;1.07;;;;;;;;;;4972814;28;20188;-69
2023/01/16 15:28:06;;;;;;;2.13;1.37;;;;;;;;;;4983623;28;20235;-69
2023/01/16 15:30:32;;;;;;;1.70;1.10;;;;;;;;;;4990578;28;20231;-69
2023/01/16 15:33:45;;;;;;;2.50;1.63;;;;;;;;;;4991717;28;20621;-69
2023/01/16 15:35:55;;;;;;;1.13;0.93;;;;;;;;;;5000817;28;20202;-69
2023/01/16 15:38:24;;;;;;;3.07;1.10;;;;;;;;;;4974248;28;20184;-69
2023/01/16 15:40:51;;;;;;;3.33;1.20;;;;;;;;;;4999113;28;20234;-69
2023/01/16 15:46:33;;;;;;;2.00;1.20;;;;;;;;;;4974881;28;20219;-69
2023/01/16 15:49:07;;;;;;;2.97;1.43;;;;;;;;;;4991526;28;20303;-69
2023/01/16 15:51:32;;;;;;;3.87;1.43;;;;;;;;;;4992429;28;20833;-69
2023/01/16 15:53:59;;;;;;;3.67;1.30;;;;;;;;;;4997731;28;20446;-68
2023/01/16 15:56:41;;;;;;;2.10;1.10;;;;;;;;;;4993498;28;20608;-68
2023/01/16 15:59:26;;;;;;;2.00;1.50;;;;;;;;;;4983259;28;20187;-69
2023/01/16 16:01:52;;;;;;;2.60;1.30;;;;;;;;;;4986940;28;20191;-67
2023/01/16 16:04:19;;;;;;;3.47;1.50;;;;;;;;;;4985703;28;20547;-69
2023/01/16 16:06:45;;;;;;;2.93;1.23;;;;;;;;;;4990886;28;20195;-68
2023/01/16 16:09:18;;;;;;;2.57;1.40;;;;;;;;;;4984878;28;20733;-68
2023/01/16 16:11:52;;;;;;;4.50;2.20;;;;;;;;;;4999568;28;20183;-68
2023/01/16 16:20:31;;;;;;;2.30;1.30;;;;;;;;;;5003764;28;20553;-69
2023/01/16 16:23:20;;;;;;;3.17;1.20;;;;;;;;;;5003144;28;20716;-68
2023/01/16 16:25:59;;;;;;;1.43;1.30;;;;;;;;;;4998529;28;20241;-69
2023/01/16 16:28:33;;;;;;;2.93;1.33;;;;;;;;;;4999675;28;20749;-68
2023/01/16 16:31:23;;;;;;;2.10;1.27;;;;;;;;;;4991101;28;20219;-69
2023/01/16 16:34:17;;;;;;;2.80;0.90;;;;;;;;;;4986284;28;20210;-68
2023/01/16 16:36:44;;;;;;;2.93;1.10;;;;;;;;;;4997062;28;20747;-69
2023/01/16 16:39:34;;;;;;;2.53;1.17;;;;;;;;;;4990077;28;20667;-69
2023/01/16 16:44:46;;;;;;;2.30;1.30;;;;;;;;;;4998001;28;20216;-69
2023/01/16 16:47:21;;;;;;;1.70;1.23;;;;;;;;;;5002408;28;20266;-69
2023/01/16 16:49:46;;;;;;;1.77;1.40;;;;;;;;;;4981014;28;20211;-69
2023/01/16 16:52:27;;;;;;;1.80;1.43;;;;;;;;;;4998903;28;20245;-69
2023/01/16 16:54:58;;;;;;;2.50;1.73;;;;;;;;;;4992236;28;20577;-72
2023/01/16 16:57:25;;;;;;;1.33;1.13;;;;;;;;;;5003088;28;20192;-68
2023/01/16 16:59:52;;;;;;;1.83;1.57;;;;;;;;;;4992455;28;20207;-69
2023/01/16 17:02:17;;;;;;;2.10;1.40;;;;;;;;;;4984263;28;20206;-69